22:17
Airports
History
Links
Donate
Help keep this website running!
PayPal
Bitcoin
This page is community maintained. The information is intended for PC simulator navigation or reference.
Always use approved charts for navigation.
EDDE
Erfurt
Erfurt (EDDE)
Erfurt, Thüringen, Germany (99092)
(C)
Lat/Lng:50° 58' 47.31" N / 10° 57' 29.18" E
50.979808 / 10.958105
Elevation:1035'ft / 315mMSL
ID / ICAO:EDDE
Runways:1
Longest:10-28
Asphalt 2,591m / 8,501ft
Controlled:Yes
METAR21:50 GMT 2017-10-17
Altimeter: 30.09
Visibility: 6.2 statute miles
Wind: 8 knots (from 210°)
Temp: 12°c / 54°f
Humidity: 81.9%

METAR: EDDE 172150Z 21008KT CAVOK 12/09 Q1019

(Powered by phpweather)
Airport Radio Frequencies
EDDE ATIS: 135.17
Ground: 121.75, 121.9
Tower: 121.15, 123.22, 133.57
Approach: 124.17
Nearby VORs <50NM
Nearby NDBs
Runway 10 / 28
Dimensions:2591 x 50m 8501' x 164'ft
Surface:Asphalt
Edge Lights:Medium intensity
Runway 10 [A]Runway 28 [B]
Heading:098°TH 278°TH
Lat:
Lng:
50° 58' 53.34"N
10° 56' 23.09"E
50° 58' 41.28"N
10° 58' 35.26"E
ALS:RAILRAIL
TDZ:Yes, lighted
User Notes and Comments
50° 58' 47.31" N / 10° 57' 29.18" E
Distance To
Airport ID:
Nearby Airports
(C) SOEMMERDA-DERMSDORF 18.2 NM
EDBS NNE 33°
(U) EISENACH KINDEL 21.0 NM
EDGE W 272°
(U) OBERMEHLER SCHLOTHEIM 24.3 NM
EDCO NW 324°
(C) BAD FRANKENHAUSEN 28.3 NM
EDOF NNE 16°
(U) JENA SCHONGLEINA 33.2 NM
EDBJ E 97°
(U) ALLSTEDT 34.5 NM
EDBT NE 36°
(C) LAUCHA 36.8 NM
EDBL ENE 60°
VFR Chart
Flight Planning at SkyVector.com